createdAt,value
2017-06-27T00:00:41.661Z,997.87
2017-06-27T00:02:43.160Z,997.82
2017-06-27T00:04:59.277Z,997.82
2017-06-27T00:07:15.374Z,997.85
2017-06-27T00:09:39.851Z,997.85
2017-06-27T00:12:04.349Z,997.84
2017-06-27T00:14:28.948Z,997.78
2017-06-27T00:16:53.546Z,997.77
2017-06-27T00:18:55.160Z,997.72
2017-06-27T00:21:19.700Z,997.67
2017-06-27T00:23:44.285Z,997.7
2017-06-27T00:26:08.881Z,997.7
2017-06-27T00:28:24.971Z,997.68
2017-06-27T00:30:41.091Z,997.63
2017-06-27T00:32:57.191Z,997.56
2017-06-27T00:35:13.252Z,997.47
2017-06-27T00:37:37.845Z,997.39
2017-06-27T00:40:02.333Z,997.36
2017-06-27T00:42:27.857Z,997.4
2017-06-27T00:44:52.342Z,997.35
2017-06-27T00:47:08.480Z,997.3
2017-06-27T00:49:24.581Z,997.31
2017-06-27T00:51:49.129Z,997.32
2017-06-27T00:54:05.272Z,997.32
2017-06-27T00:56:29.816Z,997.3
2017-06-27T00:58:37.438Z,997.29
2017-06-27T01:00:45.108Z,997.32
2017-06-27T01:03:09.594Z,997.32
2017-06-27T01:05:34.087Z,997.35
2017-06-27T01:07:50.127Z,997.35
2017-06-27T01:10:14.675Z,997.34
2017-06-27T01:12:39.174Z,997.36
2017-06-27T01:15:03.766Z,997.4
2017-06-27T01:17:19.865Z,997.43
2017-06-27T01:19:44.453Z,997.42
2017-06-27T01:21:55.053Z,997.46
2017-06-27T01:24:19.614Z,997.51
2017-06-27T01:26:35.720Z,997.51
2017-06-27T01:29:00.298Z,997.55
2017-06-27T01:31:24.792Z,997.53
2017-06-27T01:33:49.279Z,997.53
2017-06-27T01:36:13.779Z,997.57
2017-06-27T01:38:38.271Z,997.52
2017-06-27T01:40:54.403Z,997.54
2017-06-27T01:43:10.453Z,997.49
2017-06-27T01:45:34.940Z,997.52
2017-06-27T01:47:42.561Z,997.51
2017-06-27T01:50:07.137Z,997.52
2017-06-27T01:52:31.735Z,997.57
2017-06-27T01:54:56.222Z,997.6
2017-06-27T01:56:57.701Z,997.6
2017-06-27T01:59:22.270Z,997.55
2017-06-27T02:01:46.760Z,997.47
2017-06-27T02:04:11.253Z,997.52
2017-06-27T02:06:18.877Z,997.49
2017-06-27T02:08:43.328Z,997.45
2017-06-27T02:11:07.825Z,997.38
2017-06-27T02:13:32.327Z,997.35
2017-06-27T02:15:56.809Z,997.33
2017-06-27T02:18:21.307Z,997.32
2017-06-27T02:20:45.789Z,997.27
2017-06-27T02:23:10.281Z,997.27
2017-06-27T02:25:34.772Z,997.22
2017-06-27T02:27:59.263Z,997.2
2017-06-27T02:30:15.296Z,997.18
2017-06-27T02:32:17.544Z,997.21
2017-06-27T02:34:42.010Z,997.2
2017-06-27T02:37:06.503Z,997.14
2017-06-27T02:39:30.998Z,997.12
2017-06-27T02:41:55.384Z,997.08
2017-06-27T02:44:11.370Z,997.04
2017-06-27T02:46:35.758Z,997.05
2017-06-27T02:49:00.154Z,997.06
2017-06-27T02:51:24.536Z,997.1
2017-06-27T02:53:49.042Z,997.05
2017-06-27T02:56:13.430Z,997.03
2017-06-27T02:58:37.810Z,997.07
2017-06-27T03:01:02.205Z,997.11
2017-06-27T03:03:18.198Z,997.07
2017-06-27T03:05:42.575Z,997.09
2017-06-27T03:08:06.969Z,997.04
2017-06-27T03:12:08.983Z,997.07
2017-06-27T03:14:33.443Z,997.11
2017-06-27T03:16:57.933Z,997.1
2017-06-27T03:19:08.542Z,997.05
2017-06-27T03:21:32.989Z,997.03
2017-06-27T03:23:57.380Z,997.01
2017-06-27T03:26:21.764Z,996.93
2017-06-27T03:28:37.694Z,996.92
2017-06-27T03:30:53.598Z,996.89
2017-06-27T03:33:17.931Z,996.87
2017-06-27T03:35:42.329Z,996.88
2017-06-27T03:38:06.713Z,996.83
2017-06-27T03:40:14.249Z,996.83
2017-06-27T03:42:38.694Z,996.85
2017-06-27T03:44:48.697Z,996.84
2017-06-27T03:47:13.141Z,996.86
2017-06-27T03:49:37.530Z,996.89
2017-06-27T03:52:01.916Z,996.93
2017-06-27T03:53:54.920Z,996.93
2017-06-27T03:56:19.361Z,996.95
2017-06-27T03:58:29.344Z,996.91
2017-06-27T04:00:45.373Z,996.81
2017-06-27T04:03:09.793Z,996.81
2017-06-27T04:05:34.179Z,996.83
2017-06-27T04:07:58.471Z,996.85
2017-06-27T04:10:08.490Z,996.81
2017-06-27T04:12:32.918Z,996.83
2017-06-27T04:14:40.400Z,996.84
2017-06-27T04:17:04.828Z,996.87
2017-06-27T04:19:20.788Z,996.83
2017-06-27T04:21:45.168Z,996.84
2017-06-27T04:24:09.567Z,996.83
2017-06-27T04:26:33.958Z,996.84
2017-06-27T04:28:58.345Z,996.81
2017-06-27T04:30:59.804Z,996.79
2017-06-27T04:32:58.891Z,996.78
2017-06-27T04:35:14.820Z,996.8
2017-06-27T04:37:39.168Z,996.81
2017-06-27T04:39:55.109Z,996.83
2017-06-27T04:42:19.446Z,996.75
2017-06-27T04:44:43.831Z,996.73
2017-06-27T04:46:59.721Z,996.75
2017-06-27T04:49:24.102Z,996.78
2017-06-27T04:51:48.504Z,996.76
2017-06-27T04:54:12.882Z,996.78
2017-06-27T04:56:28.825Z,996.75
2017-06-27T04:58:30.274Z,996.76
2017-06-27T05:00:46.226Z,996.72
2017-06-27T05:03:10.612Z,996.71
2017-06-27T05:05:12.099Z,996.68
2017-06-27T05:07:36.558Z,996.66
2017-06-27T05:10:00.958Z,996.62
2017-06-27T05:12:25.330Z,996.6
2017-06-27T05:14:49.726Z,996.62
2017-06-27T05:17:05.614Z,996.59
2017-06-27T05:19:30.007Z,996.6
2017-06-27T05:21:40.094Z,996.54
2017-06-27T05:23:56.050Z,996.52
2017-06-27T05:26:20.431Z,996.48
2017-06-27T05:28:36.324Z,996.43
2017-06-27T05:30:52.220Z,996.45
2017-06-27T05:33:16.603Z,996.41
2017-06-27T05:35:41.004Z,996.41
2017-06-27T05:38:05.500Z,996.31
2017-06-27T05:40:29.992Z,996.32
2017-06-27T05:42:54.486Z,996.31
2017-06-27T05:45:18.977Z,996.28
2017-06-27T05:47:34.962Z,996.25
2017-06-27T05:49:59.461Z,996.19
2017-06-27T05:52:23.948Z,996.15
2017-06-27T05:54:48.334Z,996.11
2017-06-27T05:57:12.830Z,996.14
2017-06-27T05:59:28.817Z,996.12
2017-06-27T06:01:30.801Z,996.07
2017-06-27T06:03:46.775Z,996.16
2017-06-27T06:06:02.760Z,996.11
2017-06-27T06:08:27.266Z,996.15
2017-06-27T06:10:45.303Z,996.17
2017-06-27T06:13:01.295Z,996.28
2017-06-27T06:15:26.122Z,996.27
2017-06-27T06:19:26.660Z,996.32
2017-06-27T06:21:51.022Z,996.29
2017-06-27T06:24:15.449Z,996.31
2017-06-27T06:26:39.943Z,996.27
2017-06-27T06:29:04.284Z,996.25
2017-06-27T06:31:35.555Z,996.22
2017-06-27T06:33:53.536Z,996.2
2017-06-27T06:36:17.981Z,996.19
2017-06-27T06:40:18.639Z,996.14
2017-06-27T06:42:43.131Z,996.14
2017-06-27T06:45:07.639Z,996.06
2017-06-27T06:47:31.996Z,996.07
2017-06-27T06:49:56.471Z,996.04
2017-06-27T06:52:20.906Z,996.02
2017-06-27T06:54:46.403Z,996.06
2017-06-27T06:57:10.900Z,996.08
2017-06-27T06:59:36.422Z,996.07
2017-06-27T07:02:00.897Z,996.03
2017-06-27T07:04:25.413Z,996.06
2017-06-27T07:08:17.617Z,996.11
2017-06-27T07:12:23.664Z,996.12
2017-06-27T07:16:24.483Z,996.12
2017-06-27T07:21:53.100Z,996.12
2017-06-27T07:25:53.935Z,996.17
2017-06-27T07:29:54.787Z,996.21
2017-06-27T07:33:55.645Z,996.2
2017-06-27T07:37:56.592Z,996.12
2017-06-27T07:40:13.905Z,996.26
2017-06-27T07:42:30.285Z,996.08
2017-06-27T07:44:46.717Z,996.16
2017-06-27T07:47:11.707Z,996.14
2017-06-27T07:49:36.713Z,996.22
2017-06-27T07:52:01.799Z,996.12
2017-06-27T07:54:26.732Z,996.14
2017-06-27T07:56:37.410Z,996.18
2017-06-27T07:59:02.405Z,996.23
2017-06-27T08:01:18.886Z,996.11
2017-06-27T08:03:44.930Z,996.02
2017-06-27T08:06:09.932Z,996.02
2017-06-27T08:08:34.933Z,996.02
2017-06-27T08:10:59.950Z,995.99
2017-06-27T08:13:24.944Z,995.94
2017-06-27T08:15:49.952Z,996
2017-06-27T08:18:14.964Z,996.14
2017-06-27T08:20:40.082Z,996.01
2017-06-27T08:23:05.206Z,996.1
2017-06-27T08:25:30.421Z,996.12
2017-06-27T08:29:32.190Z,996.05
2017-06-27T08:31:34.402Z,995.98
2017-06-27T08:34:00.069Z,995.87
2017-06-27T08:36:25.799Z,995.84
2017-06-27T08:38:43.006Z,995.83
2017-06-27T08:41:08.716Z,995.78
2017-06-27T08:43:34.317Z,995.75
2017-06-27T08:45:59.825Z,995.73
2017-06-27T08:48:26.358Z,995.73
2017-06-27T08:50:26.238Z,995.78
2017-06-27T08:52:43.155Z,995.78
2017-06-27T08:55:08.580Z,995.79
2017-06-27T08:57:33.984Z,995.73
2017-06-27T08:59:59.296Z,995.8
2017-06-27T09:02:24.613Z,995.75
2017-06-27T09:04:49.895Z,995.79
2017-06-27T09:06:52.149Z,995.8
2017-06-27T09:09:17.390Z,995.81
2017-06-27T09:11:42.555Z,995.84
2017-06-27T09:14:07.801Z,995.78
2017-06-27T09:16:33.010Z,995.8
2017-06-27T09:18:58.221Z,995.82
2017-06-27T09:21:23.534Z,995.84
2017-06-27T09:23:48.734Z,995.77
2017-06-27T09:26:05.472Z,995.71
2017-06-27T09:28:31.789Z,995.65
2017-06-27T09:30:57.092Z,995.59
2017-06-27T09:33:13.788Z,995.58
2017-06-27T09:35:30.505Z,995.57
2017-06-27T09:37:55.821Z,995.6
2017-06-27T09:40:21.022Z,995.62
2017-06-27T09:42:37.730Z,995.61
2017-06-27T09:45:02.923Z,995.62
2017-06-27T09:47:19.634Z,995.61
2017-06-27T09:49:44.764Z,995.62
2017-06-27T09:52:09.947Z,995.62
2017-06-27T09:54:35.077Z,995.6
2017-06-27T09:57:00.172Z,995.66
2017-06-27T09:59:25.381Z,995.6
2017-06-27T10:01:43.045Z,995.57
2017-06-27T10:03:59.746Z,995.59
2017-06-27T10:06:10.505Z,995.56
2017-06-27T10:08:27.198Z,995.55
2017-06-27T10:12:20.108Z,995.57
2017-06-27T10:14:45.273Z,995.55
2017-06-27T10:16:55.984Z,995.52
2017-06-27T10:19:12.624Z,995.48
2017-06-27T10:21:37.686Z,995.46
2017-06-27T10:24:02.747Z,995.49
2017-06-27T10:26:27.810Z,995.5
2017-06-27T10:28:52.953Z,995.48
2017-06-27T10:31:09.585Z,995.47
2017-06-27T10:33:43.280Z,995.46
2017-06-27T10:36:10.440Z,995.46
2017-06-27T10:38:37.549Z,995.43
2017-06-27T10:41:17.291Z,995.37
2017-06-27T10:43:49.324Z,995.33
2017-06-27T10:46:14.565Z,995.35
2017-06-27T10:48:31.313Z,995.35
2017-06-27T10:50:58.635Z,995.35
2017-06-27T10:53:23.955Z,995.3
2017-06-27T10:55:55.839Z,995.25
2017-06-27T10:57:58.073Z,995.28
2017-06-27T11:00:24.489Z,995.25
2017-06-27T11:02:49.792Z,995.21
2017-06-27T11:05:15.187Z,995.13
2017-06-27T11:07:41.521Z,995.08
2017-06-27T11:09:58.335Z,994.95
2017-06-27T11:12:23.641Z,994.98
2017-06-27T11:14:49.936Z,994.96
2017-06-27T11:17:15.213Z,994.98
2017-06-27T11:19:40.500Z,994.97
2017-06-27T11:22:05.804Z,994.9
2017-06-27T11:24:31.093Z,994.88
2017-06-27T11:26:56.397Z,994.87
2017-06-27T11:29:21.711Z,994.8
2017-06-27T11:31:48.001Z,994.75
2017-06-27T11:34:14.360Z,994.7
2017-06-27T11:36:39.699Z,994.7
2017-06-27T11:39:04.983Z,994.67
2017-06-27T11:41:32.290Z,994.64
2017-06-27T11:43:57.610Z,994.65
2017-06-27T11:46:22.885Z,994.61
2017-06-27T11:48:48.202Z,994.5
2017-06-27T11:52:49.916Z,994.4
2017-06-27T11:55:02.688Z,994.36
2017-06-27T11:57:27.451Z,994.36
2017-06-27T11:59:44.177Z,994.23
2017-06-27T12:02:09.480Z,994.29
2017-06-27T12:04:35.693Z,994.27
2017-06-27T12:07:00.945Z,994.27
2017-06-27T12:09:26.213Z,994.21
2017-06-27T12:11:28.370Z,994.13
2017-06-27T12:13:53.666Z,994.12
2017-06-27T12:16:18.918Z,994.11
2017-06-27T12:18:44.204Z,994.13
2017-06-27T12:20:55.026Z,994.09
2017-06-27T12:23:20.321Z,993.99
2017-06-27T12:25:30.535Z,993.97
2017-06-27T12:27:55.773Z,993.93
2017-06-27T12:30:21.054Z,993.91
2017-06-27T12:32:46.286Z,993.84
2017-06-27T12:35:11.566Z,993.78
2017-06-27T12:37:36.826Z,993.86
2017-06-27T12:40:03.090Z,993.83
2017-06-27T12:42:29.339Z,993.79
2017-06-27T12:44:46.075Z,993.78
2017-06-27T12:47:11.339Z,993.7
2017-06-27T12:49:36.614Z,993.7
2017-06-27T12:52:01.921Z,993.66
2017-06-27T12:54:18.727Z,993.59
2017-06-27T12:56:43.990Z,993.61
2017-06-27T12:59:09.236Z,993.62
2017-06-27T13:01:11.435Z,993.61
2017-06-27T13:03:36.709Z,993.59
2017-06-27T13:05:44.959Z,993.62
2017-06-27T13:08:10.206Z,993.54
2017-06-27T13:10:35.437Z,993.49
2017-06-27T13:12:54.188Z,993.45
2017-06-27T13:15:19.478Z,993.43
2017-06-27T13:17:44.751Z,993.36
2017-06-27T13:20:09.972Z,993.36
2017-06-27T13:22:35.214Z,993.4
2017-06-27T13:25:01.447Z,993.37
2017-06-27T13:27:26.726Z,993.36
2017-06-27T13:29:52.105Z,993.33
2017-06-27T13:32:17.215Z,993.31
2017-06-27T13:34:42.463Z,993.3
2017-06-27T13:36:59.247Z,993.31
2017-06-27T13:39:24.510Z,993.22
2017-06-27T13:41:49.850Z,993.27
2017-06-27T13:44:15.169Z,993.21
2017-06-27T13:46:17.391Z,993.21
2017-06-27T13:48:19.575Z,993.16
2017-06-27T13:50:36.458Z,993.14
2017-06-27T13:53:01.833Z,993.21
2017-06-27T13:55:04.152Z,993.15
2017-06-27T13:57:29.537Z,993.04
2017-06-27T13:59:56.818Z,993.05
2017-06-27T14:02:22.066Z,992.97
2017-06-27T14:04:47.379Z,992.92
2017-06-27T14:07:14.620Z,992.96
2017-06-27T14:09:39.878Z,992.92
2017-06-27T14:11:57.605Z,992.89
2017-06-27T14:14:14.295Z,992.93
2017-06-27T14:16:39.486Z,992.94
2017-06-27T14:19:04.870Z,992.9
2017-06-27T14:21:44.880Z,992.89
2017-06-27T14:23:55.660Z,992.89
2017-06-27T14:26:20.927Z,992.88
2017-06-27T14:28:37.630Z,992.87
2017-06-27T14:30:54.323Z,992.84
2017-06-27T14:33:19.671Z,992.87
2017-06-27T14:35:45.027Z,992.87
2017-06-27T14:38:10.010Z,992.9
2017-06-27T14:40:35.359Z,992.93
2017-06-27T14:43:01.835Z,992.92
2017-06-27T14:45:27.130Z,992.78
2017-06-27T14:47:43.836Z,992.77
2017-06-27T14:50:00.533Z,992.71
2017-06-27T14:52:25.744Z,992.68
2017-06-27T14:54:51.205Z,992.62
2017-06-27T14:57:16.409Z,992.65
2017-06-27T14:59:42.779Z,992.66
2017-06-27T15:02:08.452Z,992.64
2017-06-27T15:04:33.739Z,992.62
2017-06-27T15:06:58.943Z,992.59
2017-06-27T15:09:24.097Z,992.54
2017-06-27T15:11:34.838Z,992.5
2017-06-27T15:14:00.021Z,992.49
2017-06-27T15:16:25.251Z,992.43
2017-06-27T15:18:50.443Z,992.35
2017-06-27T15:21:15.659Z,992.34
2017-06-27T15:23:17.862Z,992.28
2017-06-27T15:25:44.067Z,992.2
2017-06-27T15:28:09.262Z,992.17
2017-06-27T15:30:11.428Z,992.19
2017-06-27T15:32:05.053Z,992.15
2017-06-27T15:34:30.320Z,992.14
2017-06-27T15:36:55.625Z,992.16
2017-06-27T15:39:12.431Z,992.08
2017-06-27T15:41:29.248Z,992
2017-06-27T15:43:54.574Z,991.98
2017-06-27T15:46:11.404Z,991.92
2017-06-27T15:48:28.191Z,991.93
2017-06-27T15:50:30.372Z,991.9
2017-06-27T15:52:55.663Z,991.93
2017-06-27T15:55:20.992Z,991.92
2017-06-27T15:57:37.788Z,991.87
2017-06-27T16:00:03.102Z,991.81
2017-06-27T16:02:19.903Z,991.77
2017-06-27T16:04:45.107Z,991.72
2017-06-27T16:07:10.324Z,991.64
2017-06-27T16:09:35.538Z,991.62
2017-06-27T16:12:00.744Z,991.56
2017-06-27T16:14:25.948Z,991.52
2017-06-27T16:16:51.151Z,991.56
2017-06-27T16:19:16.353Z,991.58
2017-06-27T16:21:41.565Z,991.58
2017-06-27T16:24:06.770Z,991.52
2017-06-27T16:26:31.982Z,991.53
2017-06-27T16:28:48.682Z,991.56
2017-06-27T16:31:13.889Z,991.53
2017-06-27T16:33:39.004Z,991.51
2017-06-27T16:36:04.198Z,991.55
2017-06-27T16:38:29.308Z,991.49
2017-06-27T16:40:54.410Z,991.46
2017-06-27T16:43:19.510Z,991.41
2017-06-27T16:45:36.025Z,991.42
2017-06-27T16:48:01.137Z,991.37
2017-06-27T16:50:02.809Z,991.34
2017-06-27T16:52:19.391Z,991.4
2017-06-27T16:54:36.697Z,991.29
2017-06-27T16:57:01.701Z,991.27
2017-06-27T16:59:26.707Z,991.23
2017-06-27T17:01:51.713Z,991.24
2017-06-27T17:04:08.233Z,991.14
2017-06-27T17:06:33.225Z,991.13
2017-06-27T17:08:58.221Z,991.04
2017-06-27T17:11:30.617Z,990.96
2017-06-27T17:13:47.104Z,990.87
2017-06-27T17:15:57.787Z,990.84
2017-06-27T17:18:23.797Z,990.82
2017-06-27T17:20:48.794Z,990.85
2017-06-27T17:23:13.802Z,990.82
2017-06-27T17:27:15.088Z,990.74
2017-06-27T17:29:40.071Z,990.7
2017-06-27T17:32:04.953Z,990.7
2017-06-27T17:34:29.845Z,990.68
2017-06-27T17:36:44.440Z,990.63
2017-06-27T17:39:09.406Z,990.67
2017-06-27T17:41:34.314Z,990.65
2017-06-27T17:43:59.225Z,990.6
2017-06-27T17:46:24.228Z,990.64
2017-06-27T17:48:40.667Z,990.51
2017-06-27T17:51:05.639Z,990.52
2017-06-27T17:53:30.519Z,990.5
2017-06-27T17:55:46.929Z,990.53
2017-06-27T17:57:49.027Z,990.5
2017-06-27T18:00:20.997Z,990.43
2017-06-27T18:02:45.965Z,990.44
2017-06-27T18:05:02.335Z,990.47
2017-06-27T18:07:18.673Z,990.49
2017-06-27T18:09:35.003Z,990.48
2017-06-27T18:11:59.866Z,990.46
2017-06-27T18:14:24.727Z,990.47
2017-06-27T18:18:17.049Z,990.47
2017-06-27T18:20:41.873Z,990.4
2017-06-27T18:23:06.702Z,990.4
2017-06-27T18:25:31.611Z,990.37
2017-06-27T18:27:42.277Z,990.31
2017-06-27T18:30:07.184Z,990.3
2017-06-27T18:32:31.961Z,990.28
2017-06-27T18:34:56.789Z,990.24
2017-06-27T18:37:21.572Z,990.27
2017-06-27T18:39:46.267Z,990.23
2017-06-27T18:42:02.581Z,990.22
2017-06-27T18:44:18.981Z,990.12
2017-06-27T18:48:19.965Z,990.1
2017-06-27T18:50:45.839Z,990.09
2017-06-27T18:53:10.688Z,990.05
2017-06-27T18:57:11.971Z,990.03
2017-06-27T18:59:36.973Z,990
2017-06-27T19:02:02.055Z,990.03
2017-06-27T19:04:18.725Z,989.96
2017-06-27T19:06:29.553Z,989.88
2017-06-27T19:08:31.737Z,989.88
2017-06-27T19:10:48.253Z,989.88
2017-06-27T19:12:59.161Z,989.85
2017-06-27T19:15:01.366Z,989.85
2017-06-27T19:19:02.942Z,989.87
2017-06-27T19:21:27.912Z,989.87
2017-06-27T19:23:52.910Z,989.95
2017-06-27T19:26:17.927Z,989.93
2017-06-27T19:28:47.199Z,989.97
2017-06-27T19:31:12.234Z,989.93
2017-06-27T19:33:14.548Z,989.88
2017-06-27T19:35:39.630Z,989.91
2017-06-27T19:39:40.910Z,989.86
2017-06-27T19:42:06.019Z,989.89
2017-06-27T19:44:33.055Z,989.84
2017-06-27T19:47:06.245Z,989.84
2017-06-27T19:49:39.522Z,989.79
2017-06-27T19:52:04.807Z,989.84
2017-06-27T19:54:21.332Z,989.88
2017-06-27T19:56:46.334Z,989.9
2017-06-27T19:59:11.499Z,989.88
2017-06-27T20:01:37.664Z,989.83
2017-06-27T20:04:03.350Z,989.83
2017-06-27T20:06:28.687Z,989.82
2017-06-27T20:08:53.998Z,989.81
2017-06-27T20:11:21.803Z,989.79
2017-06-27T20:13:47.257Z,989.77
2017-06-27T20:16:12.033Z,989.83
2017-06-27T20:18:37.354Z,989.79
2017-06-27T20:22:38.633Z,989.69
2017-06-27T20:24:55.156Z,989.67
2017-06-27T20:27:20.589Z,989.74
2017-06-27T20:29:38.205Z,989.76
2017-06-27T20:33:41.202Z,989.7
2017-06-27T20:35:51.563Z,989.77
2017-06-27T20:38:17.154Z,989.72
2017-06-27T20:40:41.483Z,989.69
2017-06-27T20:43:06.388Z,989.72
2017-06-27T20:45:31.302Z,989.68
2017-06-27T20:47:55.976Z,989.71
2017-06-27T20:50:12.210Z,989.69
2017-06-27T20:52:28.449Z,989.69
2017-06-27T20:54:53.022Z,989.67
2017-06-27T20:57:17.606Z,989.62
2017-06-27T20:59:42.113Z,989.58
2017-06-27T21:02:06.689Z,989.62
2017-06-27T21:04:31.305Z,989.67
2017-06-27T21:06:55.891Z,989.7
2017-06-27T21:09:20.478Z,989.71
2017-06-27T21:11:45.391Z,989.65
2017-06-27T21:15:46.176Z,989.53
2017-06-27T21:19:46.967Z,989.46
2017-06-27T21:23:39.291Z,989.35
2017-06-27T21:27:40.042Z,989.29
2017-06-27T21:31:40.857Z,989.24
2017-06-27T21:35:41.643Z,989.26
2017-06-27T21:39:42.442Z,989.17
2017-06-27T21:45:10.993Z,989.16
2017-06-27T21:49:11.757Z,989.07
2017-06-27T21:53:12.433Z,988.92
2017-06-27T21:57:13.172Z,988.9
2017-06-27T22:01:13.875Z,988.94
2017-06-27T22:05:14.608Z,988.95
2017-06-27T22:09:15.282Z,988.96
2017-06-27T22:13:15.982Z,988.95
2017-06-27T22:17:16.662Z,988.91
2017-06-27T22:21:17.395Z,988.94
2017-06-27T22:25:18.102Z,988.89
2017-06-27T22:29:18.772Z,988.91
2017-06-27T22:33:19.416Z,988.87
2017-06-27T22:37:11.662Z,988.82
2017-06-27T22:41:12.265Z,988.8
2017-06-27T22:43:52.616Z,988.66
2017-06-27T22:47:53.277Z,988.55
2017-06-27T22:51:53.943Z,988.6
2017-06-27T22:54:04.488Z,988.6
2017-06-27T22:56:37.884Z,988.5
2017-06-27T22:58:39.827Z,988.44
2017-06-27T23:02:40.522Z,988.42
2017-06-27T23:06:41.173Z,988.28
2017-06-27T23:10:41.854Z,988.28
2017-06-27T23:14:41.976Z,988.19
2017-06-27T23:18:42.625Z,988.31
2017-06-27T23:22:43.264Z,988.23
2017-06-27T23:26:44.691Z,988.25
2017-06-27T23:28:46.643Z,988.34
2017-06-27T23:32:47.315Z,988.37
2017-06-27T23:38:15.679Z,988.3
2017-06-27T23:42:16.273Z,988.18
2017-06-27T23:46:16.865Z,988.19
2017-06-27T23:50:17.444Z,988.22
2017-06-27T23:54:18.052Z,988.29
2017-06-27T23:58:18.615Z,988.21
